Time;durP1;ratioP1;P1;durP2;ratioP2;P2;SDS_P1;SDS_P2;PMS_P1;PMS_P2;Temp;Humidity;BMP_temperature;BMP_pressure;BME280_temperature;BME280_humidity;BME280_pressure;Samples;Min_cycle;Max_cycle;Signal;HPM_P1;HPM_P2
2023/05/05 00:00:19;;;;;;;0.00;0.00;;;;;;;;;;4973320;28;20073;-86
2023/05/05 00:02:45;;;;;;;0.00;0.00;;;;;;;;;;4975040;28;20081;-86
2023/05/05 00:05:11;;;;;;;0.00;0.00;;;;;;;;;;4958590;28;20042;-86
2023/05/05 00:07:37;;;;;;;0.00;0.00;;;;;;;;;;4974840;28;20050;-87
2023/05/05 00:10:04;;;;;;;0.00;0.00;;;;;;;;;;4958218;28;20046;-86
2023/05/05 00:12:30;;;;;;;0.00;0.00;;;;;;;;;;4974953;28;20050;-86
2023/05/05 00:14:56;;;;;;;0.00;0.00;;;;;;;;;;4974610;28;20042;-86
2023/05/05 00:17:22;;;;;;;0.00;0.00;;;;;;;;;;4958685;28;20058;-86
2023/05/05 00:19:48;;;;;;;0.00;0.00;;;;;;;;;;4974591;28;20053;-86
2023/05/05 00:22:14;;;;;;;0.00;0.00;;;;;;;;;;4974735;28;20047;-87
2023/05/05 00:24:40;;;;;;;0.22;0.00;;;;;;;;;;4958162;28;20073;-86
2023/05/05 00:27:06;;;;;;;0.00;0.00;;;;;;;;;;4958470;28;20039;-86
2023/05/05 00:29:32;;;;;;;0.00;0.00;;;;;;;;;;4974136;28;20042;-86
2023/05/05 00:31:58;;;;;;;0.10;0.10;;;;;;;;;;4958351;28;20074;-87
2023/05/05 00:34:24;;;;;;;0.00;0.00;;;;;;;;;;4958697;28;20392;-86
2023/05/05 00:36:50;;;;;;;0.00;0.00;;;;;;;;;;4974562;28;20047;-86
2023/05/05 00:39:16;;;;;;;0.00;0.00;;;;;;;;;;4974157;28;20125;-86
2023/05/05 00:41:42;;;;;;;0.00;0.00;;;;;;;;;;4974134;28;20125;-86
2023/05/05 00:44:08;;;;;;;0.00;0.00;;;;;;;;;;4974389;28;20051;-86
2023/05/05 00:46:34;;;;;;;0.00;0.00;;;;;;;;;;4973887;28;20518;-86
2023/05/05 00:49:00;;;;;;;0.00;0.00;;;;;;;;;;4974140;28;20061;-86
2023/05/05 00:51:27;;;;;;;0.00;0.00;;;;;;;;;;4957916;28;20046;-86
2023/05/05 00:53:54;;;;;;;0.00;0.00;;;;;;;;;;4974145;28;20101;-86
2023/05/05 00:56:23;;;;;;;0.00;0.00;;;;;;;;;;4973694;28;20234;-86
2023/05/05 00:58:49;;;;;;;0.00;0.00;;;;;;;;;;4973797;28;20050;-85
2023/05/05 01:01:15;;;;;;;0.00;0.00;;;;;;;;;;4973696;28;20054;-85
2023/05/05 01:03:41;;;;;;;0.00;0.00;;;;;;;;;;4973992;28;20450;-86
2023/05/05 01:06:14;;;;;;;0.00;0.00;;;;;;;;;;4973531;28;20130;-86
2023/05/05 01:08:49;;;;;;;0.00;0.00;;;;;;;;;;4973405;28;20059;-85
2023/05/05 01:11:20;;;;;;;0.00;0.00;;;;;;;;;;4973126;28;20081;-85
2023/05/05 01:13:58;;;;;;;0.00;0.00;;;;;;;;;;4973478;28;20126;-86
2023/05/05 01:16:29;;;;;;;0.00;0.00;;;;;;;;;;4973546;28;20049;-85
2023/05/05 01:19:13;;;;;;;0.00;0.00;;;;;;;;;;4973483;28;20101;-85
2023/05/05 01:21:42;;;;;;;0.00;0.00;;;;;;;;;;4973199;28;20049;-85
2023/05/05 01:24:17;;;;;;;0.00;0.00;;;;;;;;;;4973342;28;20093;-86
2023/05/05 01:26:43;;;;;;;0.00;0.00;;;;;;;;;;4973239;28;20569;-86
2023/05/05 01:29:09;;;;;;;0.00;0.00;;;;;;;;;;4973329;28;20047;-85
2023/05/05 01:31:50;;;;;;;0.00;0.00;;;;;;;;;;4973013;28;20126;-86
2023/05/05 01:34:18;;;;;;;0.00;0.00;;;;;;;;;;4957459;28;20043;-85
2023/05/05 01:36:46;;;;;;;0.00;0.00;;;;;;;;;;4973318;28;20053;-86
2023/05/05 01:39:14;;;;;;;0.00;0.00;;;;;;;;;;4973101;28;20043;-85
2023/05/05 01:41:41;;;;;;;0.00;0.00;;;;;;;;;;4972946;28;20047;-85
2023/05/05 01:44:08;;;;;;;0.00;0.00;;;;;;;;;;4973118;28;20539;-84
2023/05/05 01:46:35;;;;;;;0.00;0.00;;;;;;;;;;4972865;28;20082;-85
2023/05/05 01:49:01;;;;;;;0.00;0.00;;;;;;;;;;4973293;28;20054;-84
2023/05/05 01:51:28;;;;;;;0.00;0.00;;;;;;;;;;4972759;28;20051;-85
2023/05/05 01:53:56;;;;;;;0.00;0.00;;;;;;;;;;4974380;28;20054;-86
2023/05/05 01:56:23;;;;;;;0.00;0.00;;;;;;;;;;4972927;28;20051;-85
2023/05/05 01:58:49;;;;;;;0.00;0.00;;;;;;;;;;4972842;28;20062;-86
2023/05/05 02:01:17;;;;;;;0.10;0.10;;;;;;;;;;4972766;28;20062;-86
2023/05/05 02:03:44;;;;;;;0.00;0.00;;;;;;;;;;4972988;28;20406;-86
2023/05/05 02:06:10;;;;;;;0.00;0.00;;;;;;;;;;4956823;28;20405;-86
2023/05/05 02:08:37;;;;;;;0.00;0.00;;;;;;;;;;4972420;28;20054;-85
2023/05/05 02:11:04;;;;;;;0.00;0.00;;;;;;;;;;4971693;28;20118;-86
2023/05/05 02:13:31;;;;;;;0.05;0.00;;;;;;;;;;4972604;28;20260;-86
2023/05/05 02:15:57;;;;;;;0.00;0.00;;;;;;;;;;4972396;28;20398;-87
2023/05/05 02:18:24;;;;;;;0.00;0.00;;;;;;;;;;4972398;28;20128;-85
2023/05/05 02:20:52;;;;;;;0.00;0.00;;;;;;;;;;4955747;28;20043;-85
2023/05/05 02:23:18;;;;;;;0.15;0.05;;;;;;;;;;4954908;28;20077;-86
2023/05/05 02:25:48;;;;;;;0.00;0.00;;;;;;;;;;4955357;28;20057;-84
2023/05/05 02:28:22;;;;;;;0.00;0.00;;;;;;;;;;4955913;28;20126;-85
2023/05/05 02:30:51;;;;;;;0.00;0.00;;;;;;;;;;4971513;28;20042;-85
2023/05/05 02:33:19;;;;;;;0.00;0.00;;;;;;;;;;4971671;28;20045;-85
2023/05/05 02:35:45;;;;;;;0.00;0.00;;;;;;;;;;4955944;28;20049;-85
2023/05/05 02:38:16;;;;;;;0.00;0.00;;;;;;;;;;4972011;28;20431;-86
2023/05/05 02:40:43;;;;;;;0.00;0.00;;;;;;;;;;4971522;28;20162;-86
2023/05/05 02:43:10;;;;;;;0.00;0.00;;;;;;;;;;4971571;28;20047;-85
2023/05/05 02:45:36;;;;;;;0.00;0.00;;;;;;;;;;4971543;28;20097;-86
2023/05/05 02:48:03;;;;;;;0.00;0.00;;;;;;;;;;4972217;28;20389;-85
2023/05/05 02:50:30;;;;;;;0.00;0.00;;;;;;;;;;4971413;28;20438;-85
2023/05/05 02:52:56;;;;;;;0.17;0.15;;;;;;;;;;4971460;28;20382;-85
2023/05/05 02:55:23;;;;;;;0.00;0.00;;;;;;;;;;4971433;28;20079;-85
2023/05/05 02:57:49;;;;;;;0.00;0.00;;;;;;;;;;4971166;28;20046;-85
2023/05/05 03:00:20;;;;;;;0.00;0.00;;;;;;;;;;4971621;28;20389;-85
2023/05/05 03:02:54;;;;;;;0.05;0.05;;;;;;;;;;4971145;28;20058;-86
2023/05/05 03:05:24;;;;;;;0.00;0.00;;;;;;;;;;4971219;28;20401;-85
2023/05/05 03:10:40;;;;;;;;;;;;;;;;;;5131340;27;20379;-84
2023/05/05 03:13:09;;;;;;;0.00;0.00;;;;;;;;;;5129744;27;19915;-84
2023/05/05 03:15:40;;;;;;;0.00;0.00;;;;;;;;;;5129544;27;20035;-84
2023/05/05 03:18:09;;;;;;;0.00;0.00;;;;;;;;;;5129183;28;20386;-84
2023/05/05 03:20:36;;;;;;;0.55;0.10;;;;;;;;;;5129698;28;20128;-84
2023/05/05 03:23:02;;;;;;;0.00;0.00;;;;;;;;;;5112132;28;20144;-84
2023/05/05 03:25:44;;;;;;;0.17;0.00;;;;;;;;;;5129214;28;20104;-84
2023/05/05 03:28:10;;;;;;;0.00;0.00;;;;;;;;;;5128895;27;20059;-84
2023/05/05 03:30:36;;;;;;;0.00;0.00;;;;;;;;;;5129125;27;20088;-84
2023/05/05 03:33:05;;;;;;;1.35;0.10;;;;;;;;;;5129090;28;20028;-84
2023/05/05 03:35:31;;;;;;;0.00;0.00;;;;;;;;;;5112115;28;20035;-85
2023/05/05 03:37:57;;;;;;;0.00;0.00;;;;;;;;;;5129034;28;20043;-85
2023/05/05 03:40:23;;;;;;;0.45;0.10;;;;;;;;;;5128858;28;20044;-85
2023/05/05 03:42:49;;;;;;;0.00;0.00;;;;;;;;;;5128780;27;20188;-85
2023/05/05 03:45:15;;;;;;;0.00;0.00;;;;;;;;;;5111974;28;20051;-86
2023/05/05 03:47:41;;;;;;;0.00;0.00;;;;;;;;;;5111902;28;20035;-84
2023/05/05 03:50:07;;;;;;;0.00;0.00;;;;;;;;;;5128504;27;20456;-85
2023/05/05 03:52:34;;;;;;;0.00;0.00;;;;;;;;;;5128670;27;20482;-86
2023/05/05 03:55:00;;;;;;;0.00;0.00;;;;;;;;;;5128736;27;20153;-85
2023/05/05 03:57:26;;;;;;;0.00;0.00;;;;;;;;;;5128546;27;20036;-85
2023/05/05 03:59:52;;;;;;;0.00;0.00;;;;;;;;;;5128590;28;20039;-87
2023/05/05 04:02:19;;;;;;;0.10;0.00;;;;;;;;;;5128562;27;20039;-88
2023/05/05 04:04:45;;;;;;;0.10;0.00;;;;;;;;;;5111445;28;20130;-88
2023/05/05 04:07:11;;;;;;;0.00;0.00;;;;;;;;;;5128311;28;20074;-87
2023/05/05 04:09:43;;;;;;;0.00;0.00;;;;;;;;;;5128251;28;20508;-87
2023/05/05 04:12:10;;;;;;;0.15;0.00;;;;;;;;;;5111130;27;20035;-85
2023/05/05 04:14:36;;;;;;;0.00;0.00;;;;;;;;;;5111121;28;20040;-85
2023/05/05 04:17:02;;;;;;;0.00;0.00;;;;;;;;;;5128003;27;20074;-86
2023/05/05 04:19:28;;;;;;;0.00;0.00;;;;;;;;;;5128402;28;20093;-84
2023/05/05 04:21:54;;;;;;;0.00;0.00;;;;;;;;;;5115040;28;20131;-85
2023/05/05 04:24:23;;;;;;;0.00;0.00;;;;;;;;;;5114317;28;20051;-84
2023/05/05 04:26:49;;;;;;;0.00;0.00;;;;;;;;;;5097539;28;20424;-84
2023/05/05 04:29:15;;;;;;;0.00;0.00;;;;;;;;;;5113969;28;20047;-85
2023/05/05 04:31:41;;;;;;;0.00;0.00;;;;;;;;;;5097160;28;20043;-87
2023/05/05 04:34:07;;;;;;;0.00;0.00;;;;;;;;;;5113869;28;20032;-87
2023/05/05 04:36:33;;;;;;;0.00;0.00;;;;;;;;;;5114226;28;20036;-86
2023/05/05 04:38:59;;;;;;;0.00;0.00;;;;;;;;;;5113570;28;20454;-86
2023/05/05 04:41:26;;;;;;;0.08;0.08;;;;;;;;;;5114415;28;20127;-87
2023/05/05 04:43:55;;;;;;;0.00;0.00;;;;;;;;;;5097029;28;20212;-87
2023/05/05 04:46:21;;;;;;;0.00;0.00;;;;;;;;;;5096949;28;20416;-88
2023/05/05 04:48:47;;;;;;;0.00;0.00;;;;;;;;;;5096605;28;20488;-87
2023/05/05 04:51:13;;;;;;;0.00;0.00;;;;;;;;;;5096954;28;20054;-87
2023/05/05 04:53:39;;;;;;;0.00;0.00;;;;;;;;;;5096703;28;20391;-87
2023/05/05 04:56:05;;;;;;;0.00;0.00;;;;;;;;;;5113864;28;20035;-87
2023/05/05 04:58:31;;;;;;;0.00;0.00;;;;;;;;;;5097046;28;20336;-87
2023/05/05 05:00:58;;;;;;;0.00;0.00;;;;;;;;;;5096686;28;20088;-87
2023/05/05 05:03:24;;;;;;;0.00;0.00;;;;;;;;;;5113522;28;20040;-88
2023/05/05 05:05:50;;;;;;;0.00;0.00;;;;;;;;;;5113645;28;20035;-87
2023/05/05 05:08:16;;;;;;;0.00;0.00;;;;;;;;;;5112911;28;20039;-87
2023/05/05 05:10:42;;;;;;;0.00;0.00;;;;;;;;;;5113578;28;20372;-88
2023/05/05 05:13:09;;;;;;;0.00;0.00;;;;;;;;;;5113341;28;20100;-87
2023/05/05 05:15:38;;;;;;;0.00;0.00;;;;;;;;;;5113350;28;20054;-87
2023/05/05 05:18:04;;;;;;;0.00;0.00;;;;;;;;;;5113082;28;20114;-88
2023/05/05 05:20:30;;;;;;;0.00;0.00;;;;;;;;;;5096645;28;20439;-87
2023/05/05 05:22:56;;;;;;;0.00;0.00;;;;;;;;;;5113581;28;20043;-86
2023/05/05 05:25:23;;;;;;;0.00;0.00;;;;;;;;;;5113725;28;20043;-87
2023/05/05 05:27:49;;;;;;;0.00;0.00;;;;;;;;;;5096214;28;20113;-87
2023/05/05 05:30:15;;;;;;;0.00;0.00;;;;;;;;;;5113611;28;20048;-86
2023/05/05 05:32:41;;;;;;;0.00;0.00;;;;;;;;;;5112234;28;20035;-87
2023/05/05 05:35:07;;;;;;;0.00;0.00;;;;;;;;;;5113317;28;20051;-87
2023/05/05 05:37:33;;;;;;;0.00;0.00;;;;;;;;;;5096823;28;20115;-87
2023/05/05 05:39:59;;;;;;;0.00;0.00;;;;;;;;;;5113219;28;20047;-87
2023/05/05 05:42:25;;;;;;;0.00;0.00;;;;;;;;;;5112979;28;20043;-87
2023/05/05 05:44:51;;;;;;;0.00;0.00;;;;;;;;;;5112908;28;20035;-87
2023/05/05 05:47:17;;;;;;;0.00;0.00;;;;;;;;;;5112980;28;20092;-87
2023/05/05 05:49:43;;;;;;;0.10;0.03;;;;;;;;;;5112700;28;20420;-88
2023/05/05 05:52:09;;;;;;;0.00;0.00;;;;;;;;;;5112881;28;20044;-88
2023/05/05 05:54:35;;;;;;;0.15;0.15;;;;;;;;;;5112572;28;20031;-88
2023/05/05 05:57:01;;;;;;;0.00;0.00;;;;;;;;;;5112803;28;20078;-87
2023/05/05 05:59:28;;;;;;;0.00;0.00;;;;;;;;;;5095482;28;20101;-88
2023/05/05 06:01:55;;;;;;;0.00;0.00;;;;;;;;;;5095861;28;20039;-87
2023/05/05 06:04:21;;;;;;;0.00;0.00;;;;;;;;;;5095357;28;20043;-87
2023/05/05 06:06:46;;;;;;;0.00;0.00;;;;;;;;;;5112829;28;20039;-87
2023/05/05 06:09:13;;;;;;;0.00;0.00;;;;;;;;;;5095245;28;20048;-87
2023/05/05 06:11:39;;;;;;;0.00;0.00;;;;;;;;;;5095758;28;20036;-87
2023/05/05 06:14:05;;;;;;;0.00;0.00;;;;;;;;;;5095311;28;20069;-87
2023/05/05 06:16:31;;;;;;;0.00;0.00;;;;;;;;;;5112576;28;20039;-87
2023/05/05 06:18:57;;;;;;;0.00;0.00;;;;;;;;;;5095325;28;20055;-86
2023/05/05 06:21:23;;;;;;;0.00;0.00;;;;;;;;;;5112252;28;20486;-87
2023/05/05 06:23:49;;;;;;;0.00;0.00;;;;;;;;;;5112202;28;20054;-88
2023/05/05 06:26:16;;;;;;;0.10;0.00;;;;;;;;;;5095230;28;20098;-88
2023/05/05 06:28:42;;;;;;;0.00;0.00;;;;;;;;;;5094976;28;20066;-89
2023/05/05 06:31:08;;;;;;;0.00;0.00;;;;;;;;;;5112223;28;20482;-87
2023/05/05 06:33:34;;;;;;;0.00;0.00;;;;;;;;;;5111915;28;20127;-89
2023/05/05 06:36:00;;;;;;;0.00;0.00;;;;;;;;;;5096174;28;20375;-87
2023/05/05 06:38:26;;;;;;;0.10;0.00;;;;;;;;;;5111807;28;20046;-87
2023/05/05 06:40:52;;;;;;;0.05;0.00;;;;;;;;;;5112098;28;20040;-86
2023/05/05 06:43:17;;;;;;;0.00;0.00;;;;;;;;;;5111438;28;20481;-87
2023/05/05 06:45:44;;;;;;;0.00;0.00;;;;;;;;;;5112026;28;20042;-87
2023/05/05 06:48:10;;;;;;;0.00;0.00;;;;;;;;;;5111994;28;20114;-87
2023/05/05 06:50:36;;;;;;;0.20;0.00;;;;;;;;;;5111528;28;20097;-86
2023/05/05 06:53:02;;;;;;;0.00;0.00;;;;;;;;;;5112335;28;20039;-90
2023/05/05 06:55:28;;;;;;;0.00;0.00;;;;;;;;;;5112490;28;20040;-88
2023/05/05 06:57:54;;;;;;;0.00;0.00;;;;;;;;;;5095178;28;20046;-85
2023/05/05 07:00:21;;;;;;;0.00;0.00;;;;;;;;;;5094794;28;20042;-86
2023/05/05 07:02:47;;;;;;;0.03;0.00;;;;;;;;;;5111876;28;20036;-86
2023/05/05 07:05:13;;;;;;;0.00;0.00;;;;;;;;;;5111765;28;20036;-89
2023/05/05 07:07:40;;;;;;;0.00;0.00;;;;;;;;;;5095015;28;20051;-85
2023/05/05 07:10:08;;;;;;;0.00;0.00;;;;;;;;;;5111281;28;20082;-85
2023/05/05 07:12:34;;;;;;;0.00;0.00;;;;;;;;;;5094766;28;20040;-85
2023/05/05 07:15:00;;;;;;;0.00;0.00;;;;;;;;;;5111539;28;20039;-86
2023/05/05 07:17:26;;;;;;;0.55;0.32;;;;;;;;;;5111783;28;20165;-86
2023/05/05 07:19:53;;;;;;;0.00;0.00;;;;;;;;;;5111314;28;20071;-85
2023/05/05 07:22:19;;;;;;;0.00;0.00;;;;;;;;;;5095638;28;20047;-88
2023/05/05 07:24:45;;;;;;;0.10;0.10;;;;;;;;;;5112674;28;20039;-85
2023/05/05 07:27:13;;;;;;;0.00;0.00;;;;;;;;;;5111894;28;20036;-85
2023/05/05 07:29:39;;;;;;;0.00;0.00;;;;;;;;;;5094295;28;20057;-85
2023/05/05 07:32:05;;;;;;;0.00;0.00;;;;;;;;;;5111766;28;20046;-85
2023/05/05 07:34:33;;;;;;;0.20;0.13;;;;;;;;;;5094817;28;20040;-90
2023/05/05 07:36:59;;;;;;;0.22;0.00;;;;;;;;;;5095078;28;20042;-84
2023/05/05 07:39:25;;;;;;;0.00;0.00;;;;;;;;;;5111577;28;20035;-85
2023/05/05 07:41:51;;;;;;;0.00;0.00;;;;;;;;;;5111915;28;20045;-87
2023/05/05 07:44:17;;;;;;;0.00;0.00;;;;;;;;;;5094652;28;20054;-87
2023/05/05 07:46:43;;;;;;;0.00;0.00;;;;;;;;;;5111682;28;20043;-91
2023/05/05 07:49:09;;;;;;;0.00;0.00;;;;;;;;;;5094167;28;20224;-88
2023/05/05 07:51:35;;;;;;;0.05;0.05;;;;;;;;;;5095068;28;20039;-89
2023/05/05 07:54:01;;;;;;;0.00;0.00;;;;;;;;;;5094653;28;20470;-87
2023/05/05 07:56:27;;;;;;;0.00;0.00;;;;;;;;;;5113589;28;20145;-87
2023/05/05 07:58:53;;;;;;;0.00;0.00;;;;;;;;;;5115197;28;20044;-87
2023/05/05 08:01:19;;;;;;;0.20;0.10;;;;;;;;;;5097901;28;20531;-87
2023/05/05 08:03:45;;;;;;;0.00;0.00;;;;;;;;;;5115481;28;20047;-86
2023/05/05 08:06:20;;;;;;;0.00;0.00;;;;;;;;;;5114915;28;20039;-87
2023/05/05 08:08:53;;;;;;;0.00;0.00;;;;;;;;;;5114875;28;20112;-88
2023/05/05 08:11:20;;;;;;;1.65;0.52;;;;;;;;;;5114867;28;20131;-89
2023/05/05 08:13:46;;;;;;;0.43;0.10;;;;;;;;;;5098275;28;20494;-89
2023/05/05 08:16:12;;;;;;;0.00;0.00;;;;;;;;;;5097876;28;20082;-89
2023/05/05 08:18:38;;;;;;;0.00;0.00;;;;;;;;;;5114981;28;20500;-90
2023/05/05 08:21:05;;;;;;;0.00;0.00;;;;;;;;;;5114410;28;20027;-88
2023/05/05 08:23:31;;;;;;;0.00;0.00;;;;;;;;;;5115001;28;20044;-88
2023/05/05 08:26:05;;;;;;;0.00;0.00;;;;;;;;;;5098048;28;20043;-91
2023/05/05 08:28:31;;;;;;;0.00;0.00;;;;;;;;;;5114838;28;20043;-90
2023/05/05 08:30:57;;;;;;;0.00;0.00;;;;;;;;;;5097479;28;20043;-90
2023/05/05 08:33:23;;;;;;;0.00;0.00;;;;;;;;;;5114451;28;20126;-88
2023/05/05 08:35:50;;;;;;;0.00;0.00;;;;;;;;;;5114508;28;20500;-88
2023/05/05 08:38:16;;;;;;;0.00;0.00;;;;;;;;;;5098004;28;20054;-90
2023/05/05 08:40:42;;;;;;;0.00;0.00;;;;;;;;;;5097192;28;20043;-90
2023/05/05 08:43:08;;;;;;;0.00;0.00;;;;;;;;;;5097376;28;20424;-90
2023/05/05 08:45:34;;;;;;;0.22;0.08;;;;;;;;;;5097420;28;20130;-90
2023/05/05 08:48:01;;;;;;;0.00;0.00;;;;;;;;;;5097626;28;20479;-89
2023/05/05 08:50:28;;;;;;;0.00;0.00;;;;;;;;;;5096630;28;20039;-89
2023/05/05 08:53:10;;;;;;;0.00;0.00;;;;;;;;;;5114198;28;20058;-89
2023/05/05 08:55:55;;;;;;;0.00;0.00;;;;;;;;;;5114102;28;20428;-90
2023/05/05 08:58:22;;;;;;;0.00;0.00;;;;;;;;;;5114190;28;20032;-89
2023/05/05 09:00:49;;;;;;;0.00;0.00;;;;;;;;;;5113696;28;20122;-88
2023/05/05 09:03:16;;;;;;;0.00;0.00;;;;;;;;;;5096844;28;20032;-89
2023/05/05 09:05:42;;;;;;;0.00;0.00;;;;;;;;;;5096538;28;20436;-89
2023/05/05 09:08:10;;;;;;;0.00;0.00;;;;;;;;;;5113564;28;20051;-88
2023/05/05 09:10:36;;;;;;;0.00;0.00;;;;;;;;;;5113221;28;20482;-89
2023/05/05 09:13:05;;;;;;;0.00;0.00;;;;;;;;;;5113813;28;20044;-89
2023/05/05 09:15:32;;;;;;;0.00;0.00;;;;;;;;;;5096242;28;20040;-89
2023/05/05 09:17:58;;;;;;;0.00;0.00;;;;;;;;;;5113684;28;20043;-88
2023/05/05 09:20:29;;;;;;;0.00;0.00;;;;;;;;;;5096346;28;20040;-88
2023/05/05 09:22:56;;;;;;;0.00;0.00;;;;;;;;;;5115160;28;20560;-88
2023/05/05 09:25:22;;;;;;;0.00;0.00;;;;;;;;;;5096252;28;20455;-88
2023/05/05 09:27:49;;;;;;;0.00;0.00;;;;;;;;;;5096466;28;20071;-89
2023/05/05 09:30:23;;;;;;;0.00;0.00;;;;;;;;;;5095934;28;20046;-88
2023/05/05 09:32:50;;;;;;;0.00;0.00;;;;;;;;;;5096307;28;20383;-88
2023/05/05 09:35:17;;;;;;;0.00;0.00;;;;;;;;;;5113409;28;20035;-87
2023/05/05 09:37:43;;;;;;;0.00;0.00;;;;;;;;;;5096356;28;20092;-86
2023/05/05 09:40:09;;;;;;;0.22;0.00;;;;;;;;;;5112973;28;20039;-86
2023/05/05 09:42:36;;;;;;;0.00;0.00;;;;;;;;;;5113183;28;20446;-86
2023/05/05 09:45:03;;;;;;;0.00;0.00;;;;;;;;;;5112861;28;20044;-87
2023/05/05 09:47:35;;;;;;;0.70;0.47;;;;;;;;;;5112788;28;20521;-86
2023/05/05 09:50:02;;;;;;;0.30;0.00;;;;;;;;;;5112734;28;20054;-87
2023/05/05 09:52:29;;;;;;;0.00;0.00;;;;;;;;;;5112717;28;20039;-86
2023/05/05 09:54:56;;;;;;;0.00;0.00;;;;;;;;;;5095887;28;20478;-86
2023/05/05 09:57:26;;;;;;;0.40;0.20;;;;;;;;;;5112500;28;20043;-87
2023/05/05 09:59:56;;;;;;;0.00;0.00;;;;;;;;;;5112982;28;20405;-85
2023/05/05 10:02:29;;;;;;;0.00;0.00;;;;;;;;;;5095553;28;20050;-87
2023/05/05 10:05:05;;;;;;;0.00;0.00;;;;;;;;;;5095766;28;20044;-86
2023/05/05 10:07:32;;;;;;;0.00;0.00;;;;;;;;;;5112483;28;20081;-86
2023/05/05 10:09:58;;;;;;;0.00;0.00;;;;;;;;;;5112541;28;20052;-86
2023/05/05 10:12:25;;;;;;;0.00;0.00;;;;;;;;;;5115257;28;20039;-86
2023/05/05 10:14:55;;;;;;;0.00;0.00;;;;;;;;;;5112545;28;20035;-86
2023/05/05 10:17:22;;;;;;;0.00;0.00;;;;;;;;;;5095257;28;20474;-86
2023/05/05 10:19:52;;;;;;;0.00;0.00;;;;;;;;;;5111588;28;20044;-86
2023/05/05 10:22:21;;;;;;;0.08;0.08;;;;;;;;;;5112367;28;20040;-86
2023/05/05 10:24:50;;;;;;;0.00;0.00;;;;;;;;;;5095361;28;20043;-85
2023/05/05 10:27:20;;;;;;;0.00;0.00;;;;;;;;;;5111858;28;20505;-86
2023/05/05 10:30:15;;;;;;;0.00;0.00;;;;;;;;;;5095056;28;20071;-85
2023/05/05 10:32:49;;;;;;;0.00;0.00;;;;;;;;;;5103019;28;20070;-86
2023/05/05 10:35:21;;;;;;;0.00;0.00;;;;;;;;;;5112216;28;20389;-87
2023/05/05 10:37:47;;;;;;;0.00;0.00;;;;;;;;;;5123049;28;20028;-86
2023/05/05 10:40:13;;;;;;;0.00;0.00;;;;;;;;;;5117464;28;20379;-87
2023/05/05 10:42:39;;;;;;;0.00;0.00;;;;;;;;;;5111555;28;20094;-86
2023/05/05 10:45:06;;;;;;;0.45;0.10;;;;;;;;;;5113774;28;20043;-86
2023/05/05 10:47:32;;;;;;;0.00;0.00;;;;;;;;;;5111413;28;20040;-86
2023/05/05 10:50:05;;;;;;;0.00;0.00;;;;;;;;;;5094593;28;20054;-86
2023/05/05 10:52:57;;;;;;;0.00;0.00;;;;;;;;;;5094801;28;20050;-86
2023/05/05 10:55:42;;;;;;;0.00;0.00;;;;;;;;;;5096148;28;20471;-86
2023/05/05 10:58:08;;;;;;;0.00;0.00;;;;;;;;;;5111755;28;20518;-87
2023/05/05 11:00:40;;;;;;;0.03;0.03;;;;;;;;;;5094571;28;20077;-87
2023/05/05 11:03:15;;;;;;;0.32;0.10;;;;;;;;;;5111448;28;20050;-87
2023/05/05 11:06:00;;;;;;;0.00;0.00;;;;;;;;;;5094609;28;20047;-87
2023/05/05 11:08:26;;;;;;;0.00;0.00;;;;;;;;;;5111404;28;20071;-86
2023/05/05 11:10:52;;;;;;;0.22;0.10;;;;;;;;;;5094224;28;20531;-87
2023/05/05 11:13:19;;;;;;;0.00;0.00;;;;;;;;;;5111629;28;20039;-87
2023/05/05 11:15:46;;;;;;;0.00;0.00;;;;;;;;;;5111451;28;20454;-86
2023/05/05 11:18:35;;;;;;;0.00;0.00;;;;;;;;;;5094684;28;20040;-88
2023/05/05 11:21:01;;;;;;;0.10;0.00;;;;;;;;;;5111203;28;20096;-87
2023/05/05 11:23:27;;;;;;;0.00;0.00;;;;;;;;;;5111600;28;20044;-87
2023/05/05 11:25:54;;;;;;;0.00;0.00;;;;;;;;;;5094281;28;20066;-87
2023/05/05 11:28:30;;;;;;;0.00;0.00;;;;;;;;;;5094230;28;20035;-88
2023/05/05 11:30:57;;;;;;;0.00;0.00;;;;;;;;;;5112709;28;20044;-86
2023/05/05 11:33:29;;;;;;;0.00;0.00;;;;;;;;;;5115336;28;20043;-87
2023/05/05 11:36:05;;;;;;;0.00;0.00;;;;;;;;;;5115411;28;20055;-87
2023/05/05 11:38:31;;;;;;;0.00;0.00;;;;;;;;;;5098259;28;20055;-87
2023/05/05 11:41:02;;;;;;;0.00;0.00;;;;;;;;;;5098308;28;20382;-87
2023/05/05 11:43:28;;;;;;;0.00;0.00;;;;;;;;;;5115184;28;20036;-87
2023/05/05 11:46:09;;;;;;;0.00;0.00;;;;;;;;;;5098720;28;20027;-87
2023/05/05 11:48:45;;;;;;;0.00;0.00;;;;;;;;;;5098331;28;20381;-88
2023/05/05 11:51:12;;;;;;;0.00;0.00;;;;;;;;;;5115351;28;20036;-87
2023/05/05 11:53:45;;;;;;;0.00;0.00;;;;;;;;;;5115282;28;20086;-86
2023/05/05 11:56:17;;;;;;;0.00;0.00;;;;;;;;;;5115786;28;20035;-88
2023/05/05 11:58:44;;;;;;;0.00;0.00;;;;;;;;;;5115117;28;20128;-87
2023/05/05 12:01:12;;;;;;;0.00;0.00;;;;;;;;;;5115079;28;20066;-89
2023/05/05 12:03:38;;;;;;;0.00;0.00;;;;;;;;;;5098186;28;20058;-88
2023/05/05 12:06:05;;;;;;;0.00;0.00;;;;;;;;;;5116262;28;20065;-86
2023/05/05 12:08:41;;;;;;;0.00;0.00;;;;;;;;;;5097764;28;20044;-86
2023/05/05 12:11:08;;;;;;;0.00;0.00;;;;;;;;;;5097783;28;20035;-87
2023/05/05 12:13:34;;;;;;;0.00;0.00;;;;;;;;;;5114874;28;20040;-88
2023/05/05 12:16:13;;;;;;;0.00;0.00;;;;;;;;;;5098115;28;20126;-87
2023/05/05 12:18:40;;;;;;;0.00;0.00;;;;;;;;;;5114847;28;20543;-87
2023/05/05 12:21:15;;;;;;;0.00;0.00;;;;;;;;;;5097580;28;20043;-87
2023/05/05 12:23:41;;;;;;;;;;;;;;;;;;5098041;28;20039;-87
2023/05/05 12:26:07;;;;;;;;;;;;;;;;;;5098287;28;20411;-87
2023/05/05 12:28:45;;;;;;;0.00;0.00;;;;;;;;;;5114461;28;20082;-86
2023/05/05 12:31:11;;;;;;;0.00;0.00;;;;;;;;;;5114427;28;20071;-86
2023/05/05 12:33:40;;;;;;;1.05;0.68;;;;;;;;;;5097600;28;20081;-86
2023/05/05 12:36:07;;;;;;;0.13;0.13;;;;;;;;;;5114734;28;20092;-87
2023/05/05 12:38:34;;;;;;;0.10;0.10;;;;;;;;;;5114243;28;20114;-88
2023/05/05 12:41:00;;;;;;;0.00;0.00;;;;;;;;;;5097355;28;20538;-87
2023/05/05 12:43:30;;;;;;;0.00;0.00;;;;;;;;;;5097111;28;20035;-86
2023/05/05 12:46:04;;;;;;;0.00;0.00;;;;;;;;;;5097445;28;20035;-87
2023/05/05 12:48:30;;;;;;;0.00;0.00;;;;;;;;;;5097084;28;20043;-87
2023/05/05 12:51:09;;;;;;;0.08;0.00;;;;;;;;;;5114285;28;20431;-88
2023/05/05 12:53:36;;;;;;;0.00;0.00;;;;;;;;;;5097591;28;20177;-90
2023/05/05 12:56:02;;;;;;;0.00;0.00;;;;;;;;;;5097379;28;20039;-89
2023/05/05 12:58:30;;;;;;;0.00;0.00;;;;;;;;;;5116426;28;20043;-89
2023/05/05 13:01:09;;;;;;;0.00;0.00;;;;;;;;;;5100704;28;20079;-89
2023/05/05 13:03:35;;;;;;;0.00;0.00;;;;;;;;;;5100789;28;20106;-86
2023/05/05 13:06:02;;;;;;;0.00;0.00;;;;;;;;;;5099500;28;20082;-86
2023/05/05 13:08:46;;;;;;;0.00;0.00;;;;;;;;;;5099811;28;20039;-88
2023/05/05 13:11:12;;;;;;;0.08;0.05;;;;;;;;;;5098044;28;20048;-86
2023/05/05 13:13:38;;;;;;;0.00;0.00;;;;;;;;;;5113699;28;20131;-86
2023/05/05 13:16:04;;;;;;;0.15;0.00;;;;;;;;;;5096920;28;20123;-87
2023/05/05 13:18:30;;;;;;;0.00;0.00;;;;;;;;;;5113522;28;20541;-86
2023/05/05 13:20:56;;;;;;;0.00;0.00;;;;;;;;;;5113872;28;20086;-87
2023/05/05 13:23:22;;;;;;;0.00;0.00;;;;;;;;;;5113747;28;20046;-86
2023/05/05 13:25:48;;;;;;;0.00;0.00;;;;;;;;;;5115939;28;20050;-86
2023/05/05 13:28:14;;;;;;;0.00;0.00;;;;;;;;;;5113427;28;20048;-85
2023/05/05 13:30:41;;;;;;;0.00;0.00;;;;;;;;;;5096251;28;20032;-86
2023/05/05 13:33:07;;;;;;;0.00;0.00;;;;;;;;;;5113273;28;20484;-84
2023/05/05 13:35:33;;;;;;;0.00;0.00;;;;;;;;;;5113160;28;20182;-85
2023/05/05 13:37:59;;;;;;;0.00;0.00;;;;;;;;;;5112988;28;20409;-85
2023/05/05 13:40:25;;;;;;;0.00;0.00;;;;;;;;;;5113342;28;20064;-88
2023/05/05 13:42:51;;;;;;;0.00;0.00;;;;;;;;;;5112727;28;20557;-88
2023/05/05 13:45:18;;;;;;;0.00;0.00;;;;;;;;;;5112854;28;20120;-88
2023/05/05 13:47:45;;;;;;;0.00;0.00;;;;;;;;;;5113119;28;20043;-88
2023/05/05 13:50:11;;;;;;;0.22;0.20;;;;;;;;;;5112738;28;20390;-88
2023/05/05 13:52:37;;;;;;;0.00;0.00;;;;;;;;;;5112433;28;20036;-89
2023/05/05 13:55:04;;;;;;;0.00;0.00;;;;;;;;;;5112286;28;20035;-89
2023/05/05 13:57:30;;;;;;;0.00;0.00;;;;;;;;;;5096115;28;20043;-89
2023/05/05 13:59:56;;;;;;;0.00;0.00;;;;;;;;;;5112823;28;20071;-88
2023/05/05 14:02:22;;;;;;;0.00;0.00;;;;;;;;;;5113265;28;20098;-89
2023/05/05 14:04:48;;;;;;;0.00;0.00;;;;;;;;;;5112538;28;20435;-88
2023/05/05 14:07:17;;;;;;;0.00;0.00;;;;;;;;;;5112503;28;20050;-91
2023/05/05 14:09:43;;;;;;;0.00;0.00;;;;;;;;;;5094952;28;20067;-88
2023/05/05 14:12:09;;;;;;;0.00;0.00;;;;;;;;;;5113472;28;20039;-89
2023/05/05 14:14:36;;;;;;;0.00;0.00;;;;;;;;;;5112461;28;20051;-89
2023/05/05 14:17:02;;;;;;;0.00;0.00;;;;;;;;;;5112526;28;20088;-89
2023/05/05 14:19:28;;;;;;;0.00;0.00;;;;;;;;;;5112081;28;20056;-90
2023/05/05 14:21:54;;;;;;;0.00;0.00;;;;;;;;;;5113441;28;20035;-88
2023/05/05 14:24:20;;;;;;;0.00;0.00;;;;;;;;;;5113219;28;20064;-90
2023/05/05 14:26:46;;;;;;;0.00;0.00;;;;;;;;;;5112205;28;20380;-90
2023/05/05 14:29:12;;;;;;;0.00;0.00;;;;;;;;;;5112037;28;20043;-88
2023/05/05 14:31:38;;;;;;;0.00;0.00;;;;;;;;;;5096008;28;20040;-88
2023/05/05 14:34:04;;;;;;;0.00;0.00;;;;;;;;;;5112061;28;20149;-88
2023/05/05 14:36:30;;;;;;;0.00;0.00;;;;;;;;;;5095345;28;20089;-87
2023/05/05 14:38:56;;;;;;;0.00;0.00;;;;;;;;;;5111971;28;20509;-87
2023/05/05 14:41:22;;;;;;;0.00;0.00;;;;;;;;;;5115943;28;20047;-86
2023/05/05 14:43:48;;;;;;;0.00;0.00;;;;;;;;;;5119095;28;20043;-87
2023/05/05 14:46:14;;;;;;;0.00;0.00;;;;;;;;;;5116813;28;20049;-87
2023/05/05 14:48:40;;;;;;;0.00;0.00;;;;;;;;;;5121743;28;20394;-87